Hlavní strana
METAR-TAF:

METAR-TAF

Letiště :

Letiště Adolfa Suáreze

Madrid, Španělsko

zeměpisná šířka: 40-27N, zeměpisná délka: 003-33W, výška: 609 m

Aktuální stav počasí

Zpráva byla vytvořena před 27 minutami, v 09:00 UTC
Severovýchodní vítr 1 kt
Teplota 24°C
Vlhkost vzduchu 54%
Tlak 1023 hPa
Viditelnost 10 km a více
Žádná oblačnost pod 1500 m, nevyskytují se cumulonimby.

METAR: LEMD 200900Z 05001KT CAVOK 24/14 Q1023 NOSIG

Čas: 11:27 (09:27 UTC)

Předpověď počasí

Zpráva byla vytvořena před 4 hodinami a 27 minutami, v 05:00 UTC
Předpověď platná od 20 v 06 UTC do 21 v 12 UTC
vítr z různých směrů 5 kt
Viditelnost 10 km a více
Žádná oblačnost pod 1500 m, nevyskytují se cumulonimby.
Dočasný
od 20 v 12 UTC do 20 v 20 UTC
Skoro jasno ve výšce 4000 ft, Vertikální cumulus.
Pravděpodobnost 40% :
Dočasný
od 20 v 12 UTC do 20 v 17 UTC
Jihojihozápadní vítr 7 kt s nárazy do 17 kt

TAF: LEMD 200500Z 2006/2112 VRB05KT CAVOK TX32/2015Z TN16/2006Z TEMPO 2012/2020 FEW040TCU PROB40 TEMPO 2012/2017 21007G17KT

Stav a předpovědi počasí z více než 4 000 letišť (zprávy METAR a TAF).

Červené a žluté tečky na mapě představují dostupné meteorologické stanice.

Když kurzor umístíte na tečku, zobrazí se název stanice.

Pak kliknutím zobrazíte stav a předpověď počasí.

Chcete-li změnit mapu, kliknutím na zelené tlačítko se znaménkem +mapu přiblížíte, kliknutím na zelené tlačítko se znaménkem – mapu oddálíte a kliknutím na zelené šipky přejdete na sousední mapy.


METAR-TAF: